createdAt,value
2023-03-27T00:01:24.287Z,100.00
2023-03-27T00:03:53.573Z,100.00
2023-03-27T00:06:21.939Z,100.00
2023-03-27T00:08:51.121Z,100.00
2023-03-27T00:11:18.591Z,100.00
2023-03-27T00:13:50.561Z,100.00
2023-03-27T00:16:24.166Z,100.00
2023-03-27T00:18:51.413Z,100.00
2023-03-27T00:21:19.351Z,100.00
2023-03-27T00:23:46.919Z,100.00
2023-03-27T00:26:14.435Z,100.00
2023-03-27T00:28:42.141Z,100.00
2023-03-27T00:31:13.889Z,100.00
2023-03-27T00:33:41.746Z,100.00
2023-03-27T00:36:10.207Z,100.00
2023-03-27T00:38:39.755Z,100.00
2023-03-27T00:41:07.666Z,100.00
2023-03-27T00:43:35.939Z,100.00
2023-03-27T00:46:08.768Z,100.00
2023-03-27T00:48:37.814Z,100.00
2023-03-27T00:51:06.949Z,100.00
2023-03-27T00:53:34.019Z,100.00
2023-03-27T00:56:04.026Z,100.00
2023-03-27T00:58:37.546Z,100.00
2023-03-27T01:01:04.434Z,100.00
2023-03-27T01:03:32.755Z,100.00
2023-03-27T01:06:01.822Z,100.00
2023-03-27T01:08:33.080Z,100.00
2023-03-27T01:11:13.156Z,100.00
2023-03-27T01:14:01.291Z,100.00
2023-03-27T01:16:59.400Z,100.00
2023-03-27T01:19:45.949Z,100.00
2023-03-27T01:22:40.766Z,100.00
2023-03-27T01:25:35.990Z,100.00
2023-03-27T01:28:22.160Z,100.00
2023-03-27T01:30:56.550Z,100.00
2023-03-27T01:33:32.489Z,100.00
2023-03-27T01:36:05.483Z,100.00
2023-03-27T01:39:06.167Z,100.00
2023-03-27T01:41:45.571Z,100.00
2023-03-27T01:44:18.506Z,100.00
2023-03-27T01:46:56.712Z,100.00
2023-03-27T01:49:31.623Z,100.00
2023-03-27T01:52:04.855Z,100.00
2023-03-27T01:54:36.047Z,100.00
2023-03-27T01:57:22.268Z,100.00
2023-03-27T01:59:54.681Z,100.00
2023-03-27T02:02:28.766Z,100.00
2023-03-27T02:05:03.639Z,100.00
2023-03-27T02:07:37.453Z,100.00
2023-03-27T02:10:10.160Z,100.00
2023-03-27T02:12:46.529Z,100.00
2023-03-27T02:15:23.082Z,100.00
2023-03-27T02:18:04.988Z,100.00
2023-03-27T02:20:34.088Z,100.00
2023-03-27T02:23:00.872Z,100.00
2023-03-27T02:25:36.882Z,100.00
2023-03-27T02:28:25.520Z,100.00
2023-03-27T02:31:32.950Z,100.00
2023-03-27T02:34:05.218Z,100.00
2023-03-27T02:36:35.642Z,100.00
2023-03-27T02:39:16.026Z,100.00
2023-03-27T02:41:58.735Z,100.00
2023-03-27T02:44:52.466Z,100.00
2023-03-27T02:47:40.669Z,100.00
2023-03-27T02:50:20.154Z,100.00
2023-03-27T02:53:01.748Z,100.00
2023-03-27T02:55:37.051Z,100.00
2023-03-27T02:58:14.377Z,100.00
2023-03-27T03:00:59.801Z,100.00
2023-03-27T03:03:58.445Z,100.00
2023-03-27T03:06:50.489Z,100.00
2023-03-27T03:09:19.093Z,100.00
2023-03-27T03:11:52.543Z,100.00
2023-03-27T03:14:30.626Z,100.00
2023-03-27T03:16:57.554Z,100.00
2023-03-27T03:19:24.904Z,100.00
2023-03-27T03:21:52.001Z,100.00
2023-03-27T03:24:19.176Z,100.00
2023-03-27T03:26:50.094Z,100.00
2023-03-27T03:29:19.298Z,100.00
2023-03-27T03:32:01.405Z,100.00
2023-03-27T03:34:30.459Z,100.00
2023-03-27T03:36:57.177Z,100.00
2023-03-27T03:39:29.499Z,100.00
2023-03-27T03:41:56.585Z,100.00
2023-03-27T03:44:23.256Z,100.00
2023-03-27T03:46:50.079Z,100.00
2023-03-27T03:49:20.788Z,100.00
2023-03-27T03:51:47.987Z,100.00
2023-03-27T03:54:31.467Z,100.00
2023-03-27T03:56:58.474Z,100.00
2023-03-27T03:59:25.642Z,100.00
2023-03-27T04:02:12.586Z,100.00
2023-03-27T04:04:40.185Z,100.00
2023-03-27T04:07:11.078Z,100.00
2023-03-27T04:09:43.535Z,100.00
2023-03-27T04:12:17.815Z,100.00
2023-03-27T04:14:51.976Z,100.00
2023-03-27T04:17:46.091Z,100.00
2023-03-27T04:20:13.238Z,100.00
2023-03-27T04:22:48.816Z,100.00
2023-03-27T04:25:17.981Z,100.00
2023-03-27T04:27:45.485Z,100.00
2023-03-27T04:30:22.455Z,100.00
2023-03-27T04:33:07.888Z,100.00
2023-03-27T04:35:44.931Z,100.00
2023-03-27T04:38:26.360Z,100.00
2023-03-27T04:40:56.033Z,100.00
2023-03-27T04:43:26.122Z,100.00
2023-03-27T04:45:54.816Z,100.00
2023-03-27T04:48:22.002Z,100.00
2023-03-27T04:50:52.675Z,100.00
2023-03-27T04:53:36.242Z,100.00
2023-03-27T04:56:03.856Z,100.00
2023-03-27T04:58:35.970Z,100.00
2023-03-27T05:01:08.593Z,100.00
2023-03-27T05:04:02.551Z,100.00
2023-03-27T05:06:40.709Z,100.00
2023-03-27T05:09:12.418Z,100.00
2023-03-27T05:11:39.165Z,100.00
2023-03-27T05:14:08.533Z,100.00
2023-03-27T05:16:37.242Z,100.00
2023-03-27T05:19:05.976Z,100.00
2023-03-27T05:21:41.069Z,100.00
2023-03-27T05:24:11.112Z,100.00
2023-03-27T05:26:39.243Z,100.00
2023-03-27T05:29:06.148Z,100.00
2023-03-27T05:31:37.172Z,100.00
2023-03-27T05:34:22.697Z,100.00
2023-03-27T05:36:53.495Z,100.00
2023-03-27T05:39:20.540Z,100.00
2023-03-27T05:41:47.597Z,100.00
2023-03-27T05:44:21.758Z,100.00
2023-03-27T05:46:49.352Z,100.00
2023-03-27T05:49:22.547Z,100.00
2023-03-27T05:51:55.262Z,100.00
2023-03-27T05:54:22.053Z,100.00
2023-03-27T05:57:02.829Z,100.00
2023-03-27T05:59:29.933Z,100.00
2023-03-27T06:02:11.660Z,100.00
2023-03-27T06:04:46.744Z,100.00
2023-03-27T06:07:24.596Z,100.00
2023-03-27T06:09:51.612Z,100.00
2023-03-27T06:12:34.950Z,100.00
2023-03-27T06:15:10.887Z,100.00
2023-03-27T06:17:48.034Z,100.00
2023-03-27T06:20:15.527Z,100.00
2023-03-27T06:22:51.821Z,100.00
2023-03-27T06:25:23.925Z,100.00
2023-03-27T06:27:51.584Z,100.00
2023-03-27T06:30:21.111Z,100.00
2023-03-27T06:33:08.083Z,100.00
2023-03-27T06:35:35.097Z,100.00
2023-03-27T06:38:15.652Z,100.00
2023-03-27T06:40:43.251Z,100.00
2023-03-27T06:43:10.932Z,100.00
2023-03-27T06:45:50.250Z,100.00
2023-03-27T06:48:52.456Z,100.00
2023-03-27T06:51:22.994Z,100.00
2023-03-27T06:53:51.396Z,100.00
2023-03-27T06:56:18.822Z,100.00
2023-03-27T06:59:03.997Z,100.00
2023-03-27T07:01:31.484Z,100.00
2023-03-27T07:04:30.267Z,100.00
2023-03-27T07:07:04.462Z,100.00
2023-03-27T07:09:38.154Z,100.00
2023-03-27T07:12:09.023Z,100.00
2023-03-27T07:14:37.595Z,100.00
2023-03-27T07:17:04.439Z,100.00
2023-03-27T07:19:46.970Z,100.00
2023-03-27T07:22:16.095Z,100.00
2023-03-27T07:24:43.044Z,100.00
2023-03-27T07:27:11.025Z,100.00
2023-03-27T07:29:38.322Z,100.00
2023-03-27T07:32:09.146Z,100.00
2023-03-27T07:34:43.246Z,100.00
2023-03-27T07:37:32.790Z,100.00
2023-03-27T07:40:29.458Z,100.00
2023-03-27T07:43:19.983Z,100.00
2023-03-27T07:45:47.114Z,100.00
2023-03-27T07:48:19.132Z,100.00
2023-03-27T07:50:47.880Z,100.00
2023-03-27T07:53:33.199Z,100.00
2023-03-27T07:56:09.265Z,100.00
2023-03-27T07:58:36.253Z,100.00
2023-03-27T08:01:04.591Z,100.00
2023-03-27T08:03:32.085Z,100.00
2023-03-27T08:06:00.583Z,100.00
2023-03-27T08:08:30.075Z,100.00
2023-03-27T08:10:59.969Z,100.00
2023-03-27T08:13:31.202Z,100.00
2023-03-27T08:16:17.666Z,100.00
2023-03-27T08:18:46.849Z,100.00
2023-03-27T08:21:14.160Z,100.00
2023-03-27T08:23:41.159Z,100.00
2023-03-27T08:26:07.964Z,100.00
2023-03-27T08:28:54.285Z,100.00
2023-03-27T08:31:24.162Z,100.00
2023-03-27T08:33:51.727Z,100.00
2023-03-27T08:36:24.111Z,100.00
2023-03-27T08:38:55.479Z,100.00
2023-03-27T08:41:38.801Z,100.00
2023-03-27T08:44:29.634Z,100.00
2023-03-27T08:47:03.221Z,100.00
2023-03-27T08:49:41.206Z,100.00
2023-03-27T08:52:23.296Z,100.00
2023-03-27T08:55:00.322Z,100.00
2023-03-27T08:57:37.820Z,100.00
2023-03-27T09:00:18.752Z,100.00
2023-03-27T09:02:54.365Z,100.00
2023-03-27T09:05:28.960Z,100.00
2023-03-27T09:08:23.918Z,100.00
2023-03-27T09:10:56.782Z,100.00
2023-03-27T09:13:51.617Z,100.00
2023-03-27T09:16:29.957Z,100.00
2023-03-27T09:19:17.282Z,100.00
2023-03-27T09:21:52.762Z,100.00
2023-03-27T09:24:43.263Z,100.00
2023-03-27T09:27:33.878Z,100.00
2023-03-27T09:30:22.081Z,100.00
2023-03-27T09:33:01.873Z,100.00
2023-03-27T09:35:29.698Z,100.00
2023-03-27T09:38:12.858Z,100.00
2023-03-27T09:40:47.668Z,100.00
2023-03-27T09:43:23.097Z,100.00
2023-03-27T09:45:53.945Z,100.00
2023-03-27T09:48:54.439Z,100.00
2023-03-27T09:51:42.847Z,100.00
2023-03-27T09:54:19.704Z,100.00
2023-03-27T09:56:54.521Z,100.00
2023-03-27T09:59:21.334Z,100.00
2023-03-27T10:01:50.573Z,100.00
2023-03-27T10:04:22.009Z,92.22
2023-03-27T10:07:05.413Z,88.34
2023-03-27T10:10:08.386Z,83.36
2023-03-27T10:12:56.005Z,92.33
2023-03-27T10:15:39.529Z,89.52
2023-03-27T10:18:31.450Z,91.05
2023-03-27T10:21:18.603Z,91.12
2023-03-27T10:23:49.998Z,97.39
2023-03-27T10:26:32.057Z,99.33
2023-03-27T10:29:07.047Z,100.00
2023-03-27T10:31:49.731Z,100.00
2023-03-27T10:34:57.464Z,100.00
2023-03-27T10:37:34.204Z,91.73
2023-03-27T10:40:37.712Z,99.62
2023-03-27T10:43:17.496Z,93.31
2023-03-27T10:45:59.538Z,99.50
2023-03-27T10:48:37.861Z,94.08
2023-03-27T10:51:13.214Z,100.00
2023-03-27T10:54:00.291Z,90.36
2023-03-27T10:56:58.223Z,85.56
2023-03-27T11:02:31.675Z,69.34
2023-03-27T11:03:47.674Z,97.17
2023-03-27T11:05:11.233Z,76.57
2023-03-27T11:07:41.932Z,87.21
2023-03-27T11:10:24.011Z,73.72
2023-03-27T11:12:59.771Z,87.15
2023-03-27T11:15:42.368Z,83.18
2023-03-27T11:18:45.806Z,79.63
2023-03-27T11:21:19.035Z,85.48
2023-03-27T11:23:58.099Z,91.87
2023-03-27T11:27:14.630Z,84.59
2023-03-27T11:30:25.620Z,88.69
2023-03-27T11:32:58.890Z,89.84
2023-03-27T11:35:33.777Z,86.23
2023-03-27T11:38:28.814Z,83.35
2023-03-27T11:40:56.953Z,71.27
2023-03-27T11:43:25.708Z,80.21
2023-03-27T11:46:33.526Z,61.51
2023-03-27T11:49:22.226Z,58.55
2023-03-27T11:52:14.398Z,60.46
2023-03-27T11:55:10.512Z,62.17
2023-03-27T11:57:48.480Z,62.47
2023-03-27T12:00:40.169Z,50.53
2023-03-27T12:03:42.033Z,51.91
2023-03-27T12:06:53.622Z,52.80
2023-03-27T12:09:56.980Z,48.61
2023-03-27T12:13:09.138Z,48.96
2023-03-27T12:15:48.711Z,49.47
2023-03-27T12:21:29.357Z,53.63
2023-03-27T12:24:27.405Z,47.59
2023-03-27T12:27:14.690Z,47.65
2023-03-27T12:30:14.836Z,50.42
2023-03-27T12:33:19.511Z,48.30
2023-03-27T12:35:50.787Z,55.69
2023-03-27T12:38:37.528Z,45.51
2023-03-27T12:41:23.654Z,45.13
2023-03-27T12:44:01.118Z,47.10
2023-03-27T12:46:39.978Z,47.29
2023-03-27T12:49:13.574Z,48.30
2023-03-27T12:51:53.946Z,43.94
2023-03-27T12:55:06.112Z,45.01
2023-03-27T12:57:51.746Z,47.64
2023-03-27T13:00:32.560Z,46.44
2023-03-27T13:03:19.119Z,47.69
2023-03-27T13:06:08.308Z,48.69
2023-03-27T13:09:02.657Z,51.71
2023-03-27T13:12:10.892Z,46.59
2023-03-27T13:15:11.503Z,44.28
2023-03-27T13:17:41.773Z,47.00
2023-03-27T13:20:22.341Z,54.56
2023-03-27T13:23:02.105Z,45.50
2023-03-27T13:25:56.815Z,47.19
2023-03-27T13:28:34.383Z,42.27
2023-03-27T13:31:16.706Z,44.88
2023-03-27T13:34:27.394Z,44.29
2023-03-27T13:37:11.248Z,47.02
2023-03-27T13:39:48.342Z,49.18
2023-03-27T13:42:21.298Z,43.80
2023-03-27T13:45:07.944Z,53.73
2023-03-27T13:48:00.626Z,46.93
2023-03-27T13:50:31.038Z,44.35
2023-03-27T13:53:21.740Z,45.80
2023-03-27T13:56:22.329Z,47.36
2023-03-27T13:59:29.571Z,45.92
2023-03-27T14:02:29.357Z,45.75
2023-03-27T14:05:16.462Z,44.60
2023-03-27T14:08:06.093Z,46.93
2023-03-27T14:11:07.370Z,50.42
2023-03-27T14:13:52.690Z,49.68
2023-03-27T14:16:42.745Z,46.52
2023-03-27T14:19:24.543Z,44.56
2023-03-27T14:22:26.343Z,44.52
2023-03-27T14:25:04.817Z,47.88
2023-03-27T14:27:55.533Z,47.71
2023-03-27T14:30:32.650Z,45.83
2023-03-27T14:33:20.098Z,46.03
2023-03-27T14:35:54.702Z,43.89
2023-03-27T14:38:33.975Z,45.69
2023-03-27T14:41:03.228Z,45.32
2023-03-27T14:43:52.235Z,45.94
2023-03-27T14:46:22.565Z,46.02
2023-03-27T14:48:57.223Z,48.34
2023-03-27T14:51:37.417Z,45.88
2023-03-27T14:54:17.647Z,48.09
2023-03-27T14:56:52.356Z,47.32
2023-03-27T14:59:36.181Z,47.77
2023-03-27T15:02:32.291Z,46.76
2023-03-27T15:05:09.851Z,48.87
2023-03-27T15:07:38.200Z,47.76
2023-03-27T15:10:29.941Z,46.92
2023-03-27T15:13:12.063Z,48.42
2023-03-27T15:15:50.204Z,49.70
2023-03-27T15:18:42.113Z,47.10
2023-03-27T15:21:20.294Z,44.55
2023-03-27T15:24:16.759Z,48.14
2023-03-27T15:26:44.111Z,46.00
2023-03-27T15:29:19.928Z,46.92
2023-03-27T15:31:50.389Z,41.79
2023-03-27T15:34:34.489Z,43.36
2023-03-27T15:37:05.843Z,43.82
2023-03-27T15:39:34.881Z,46.44
2023-03-27T15:42:12.437Z,43.44
2023-03-27T15:44:40.201Z,46.63
2023-03-27T15:47:24.984Z,45.14
2023-03-27T15:50:12.511Z,48.00
2023-03-27T15:52:50.481Z,48.11
2023-03-27T15:55:39.567Z,45.99
2023-03-27T15:58:41.667Z,45.14
2023-03-27T16:01:18.253Z,48.72
2023-03-27T16:03:48.410Z,46.10
2023-03-27T16:06:27.764Z,48.45
2023-03-27T16:08:55.231Z,50.63
2023-03-27T16:11:36.917Z,46.16
2023-03-27T16:14:05.136Z,46.98
2023-03-27T16:16:34.072Z,50.48
2023-03-27T16:19:11.731Z,47.74
2023-03-27T16:21:52.803Z,48.10
2023-03-27T16:24:22.462Z,49.58
2023-03-27T16:26:53.223Z,49.60
2023-03-27T16:29:21.579Z,47.64
2023-03-27T16:31:48.219Z,47.81
2023-03-27T16:34:23.052Z,47.90
2023-03-27T16:36:50.405Z,49.12
2023-03-27T16:39:17.194Z,48.23
2023-03-27T16:41:43.971Z,48.14
2023-03-27T16:44:10.827Z,48.77
2023-03-27T16:46:37.633Z,49.55
2023-03-27T16:49:04.423Z,49.38
2023-03-27T16:51:31.183Z,51.75
2023-03-27T16:53:57.876Z,51.00
2023-03-27T16:56:24.678Z,52.84
2023-03-27T16:58:51.395Z,53.66
2023-03-27T17:01:18.241Z,51.33
2023-03-27T17:03:44.983Z,51.47
2023-03-27T17:06:12.795Z,50.44
2023-03-27T17:08:39.606Z,49.81
2023-03-27T17:11:09.996Z,50.48
2023-03-27T17:13:37.485Z,50.87
2023-03-27T17:16:05.851Z,52.63
2023-03-27T17:18:34.308Z,50.67
2023-03-27T17:21:01.291Z,48.92
2023-03-27T17:23:28.190Z,49.43
2023-03-27T17:25:55.243Z,51.98
2023-03-27T17:28:22.182Z,50.02
2023-03-27T17:31:01.055Z,50.75
2023-03-27T17:33:30.620Z,51.30
2023-03-27T17:35:57.709Z,50.28
2023-03-27T17:38:24.706Z,51.53
2023-03-27T17:40:51.894Z,51.73
2023-03-27T17:43:18.680Z,51.78
2023-03-27T17:45:45.475Z,51.18
2023-03-27T17:48:12.521Z,52.15
2023-03-27T17:50:39.496Z,54.99
2023-03-27T17:53:06.949Z,52.83
2023-03-27T17:55:36.894Z,47.27
2023-03-27T17:58:09.542Z,52.48
2023-03-27T18:00:38.625Z,48.72
2023-03-27T18:03:06.631Z,49.23
2023-03-27T18:05:41.047Z,49.70
2023-03-27T18:08:11.212Z,49.69
2023-03-27T18:10:48.254Z,48.41
2023-03-27T18:13:16.341Z,48.94
2023-03-27T18:15:43.486Z,50.58
2023-03-27T18:18:10.341Z,53.66
2023-03-27T18:20:38.498Z,54.56
2023-03-27T18:23:06.214Z,56.56
2023-03-27T18:25:33.135Z,55.92
2023-03-27T18:27:59.907Z,55.41
2023-03-27T18:30:26.655Z,57.13
2023-03-27T18:32:53.466Z,55.02
2023-03-27T18:35:20.682Z,56.60
2023-03-27T18:37:47.319Z,58.27
2023-03-27T18:40:16.628Z,52.75
2023-03-27T18:42:46.517Z,51.51
2023-03-27T18:45:15.024Z,54.63
2023-03-27T18:47:43.144Z,53.74
2023-03-27T18:50:14.443Z,51.12
2023-03-27T18:52:42.136Z,52.83
2023-03-27T18:55:11.641Z,51.35
2023-03-27T18:57:39.521Z,50.55
2023-03-27T19:00:09.555Z,49.12
2023-03-27T19:02:37.957Z,50.85
2023-03-27T19:05:05.540Z,52.67
2023-03-27T19:07:33.514Z,53.54
2023-03-27T19:10:00.286Z,52.84
2023-03-27T19:12:36.957Z,52.65
2023-03-27T19:15:20.366Z,52.35
2023-03-27T19:18:07.924Z,52.62
2023-03-27T19:21:05.976Z,52.77
2023-03-27T19:23:48.743Z,56.92
2023-03-27T19:26:19.294Z,56.54
2023-03-27T19:28:47.767Z,53.01
2023-03-27T19:31:15.055Z,53.57
2023-03-27T19:33:41.950Z,52.61
2023-03-27T19:36:09.720Z,51.81
2023-03-27T19:38:37.536Z,54.22
2023-03-27T19:41:08.482Z,61.19
2023-03-27T19:43:35.291Z,56.44
2023-03-27T19:46:14.898Z,58.05
2023-03-27T19:48:47.532Z,59.15
2023-03-27T19:51:39.803Z,59.92
2023-03-27T19:54:06.505Z,61.57
2023-03-27T19:56:34.952Z,65.47
2023-03-27T19:59:02.090Z,62.71
2023-03-27T20:01:29.323Z,60.80
2023-03-27T20:03:58.008Z,62.93
2023-03-27T20:06:26.204Z,61.28
2023-03-27T20:08:57.854Z,63.13
2023-03-27T20:11:27.046Z,64.39
2023-03-27T20:13:56.923Z,60.66
2023-03-27T20:16:26.540Z,67.04
2023-03-27T20:19:03.873Z,65.31
2023-03-27T20:21:37.722Z,60.60
2023-03-27T20:24:09.912Z,58.67
2023-03-27T20:26:41.503Z,59.41
2023-03-27T20:29:17.091Z,60.58
2023-03-27T20:31:45.395Z,61.20
2023-03-27T20:34:12.442Z,64.63
2023-03-27T20:36:39.607Z,62.99
2023-03-27T20:41:47.044Z,67.49
2023-03-27T20:44:16.789Z,67.63
2023-03-27T20:46:47.859Z,67.38
2023-03-27T20:49:37.729Z,67.08
2023-03-27T20:52:08.522Z,71.78
2023-03-27T20:54:36.519Z,70.20
2023-03-27T20:57:03.659Z,71.90
2023-03-27T20:59:31.431Z,70.98
2023-03-27T21:01:59.336Z,69.00
2023-03-27T21:04:29.696Z,70.32
2023-03-27T21:06:56.433Z,68.85
2023-03-27T21:09:24.834Z,69.84
2023-03-27T21:11:54.969Z,69.77
2023-03-27T21:14:22.350Z,76.26
2023-03-27T21:16:49.031Z,79.43
2023-03-27T21:19:16.008Z,78.75
2023-03-27T21:21:45.018Z,77.81
2023-03-27T21:24:11.606Z,77.86
2023-03-27T21:26:38.328Z,78.65
2023-03-27T21:29:05.483Z,78.59
2023-03-27T21:31:32.277Z,76.96
2023-03-27T21:33:59.038Z,79.20
2023-03-27T21:36:28.828Z,78.90
2023-03-27T21:38:56.950Z,76.30
2023-03-27T21:41:24.127Z,80.77
2023-03-27T21:43:50.850Z,79.97
2023-03-27T21:46:17.700Z,85.23
2023-03-27T21:48:53.530Z,80.64
2023-03-27T21:51:20.345Z,81.98
2023-03-27T21:53:47.150Z,80.27
2023-03-27T21:56:13.967Z,81.69
2023-03-27T21:58:40.795Z,81.31
2023-03-27T22:01:07.932Z,82.44
2023-03-27T22:03:35.037Z,94.99
2023-03-27T22:06:12.153Z,93.22
2023-03-27T22:08:42.716Z,92.59
2023-03-27T22:11:11.225Z,95.53
2023-03-27T22:13:39.018Z,96.27
2023-03-27T22:16:14.316Z,100.00
2023-03-27T22:18:46.582Z,100.00
2023-03-27T22:21:22.227Z,100.00
2023-03-27T22:23:51.012Z,100.00
2023-03-27T22:26:23.431Z,100.00
2023-03-27T22:28:52.520Z,100.00
2023-03-27T22:31:20.304Z,100.00
2023-03-27T22:33:47.606Z,100.00
2023-03-27T22:36:14.647Z,100.00
2023-03-27T22:38:42.019Z,100.00
2023-03-27T22:41:10.776Z,100.00
2023-03-27T22:43:38.040Z,100.00
2023-03-27T22:46:08.376Z,100.00
2023-03-27T22:48:35.474Z,100.00
2023-03-27T22:51:02.230Z,100.00
2023-03-27T22:53:29.180Z,100.00
2023-03-27T22:55:57.856Z,100.00
2023-03-27T22:58:25.862Z,100.00
2023-03-27T23:00:54.444Z,100.00
2023-03-27T23:03:22.356Z,100.00
2023-03-27T23:05:50.391Z,100.00
2023-03-27T23:08:18.623Z,100.00
2023-03-27T23:10:46.280Z,100.00
2023-03-27T23:13:13.228Z,100.00
2023-03-27T23:15:40.011Z,100.00
2023-03-27T23:18:06.764Z,100.00
2023-03-27T23:20:33.507Z,100.00
2023-03-27T23:23:00.428Z,100.00
2023-03-27T23:25:27.117Z,100.00
2023-03-27T23:27:53.799Z,100.00
2023-03-27T23:30:20.556Z,100.00
2023-03-27T23:32:47.302Z,100.00
2023-03-27T23:35:14.179Z,100.00
2023-03-27T23:37:40.903Z,100.00
2023-03-27T23:40:08.357Z,100.00
2023-03-27T23:42:34.892Z,100.00
2023-03-27T23:45:01.612Z,100.00
2023-03-27T23:47:28.340Z,100.00
2023-03-27T23:49:55.167Z,100.00
2023-03-27T23:52:21.879Z,100.00
2023-03-27T23:54:48.558Z,100.00
2023-03-27T23:57:15.362Z,100.00
2023-03-27T23:59:42.111Z,100.00
